»·PEaware :: ACA250 CYCG-CYBD

ACA250 :: CYCG-CYBD

FLIGHT INFORMATION

Flight Status: Arrived
Operator:
Air Canada
More flights by this operator :: More flights under this callsign
Pilot: Anonymous 13363 (13363)
Aircraft: CANADAIR CL-600 CRJ-200
(CRJ2)
More flights by this aircraft type
Origin: CYCG Castlegar
Canada
Destination: CYBD Bella Coola
Canada
More flights between these airports :: More routes between these airports
Route: DASBI J500 SENSA 50N120W
File this flight plan on PilotEdge
Remarks:
Altitude:
(Current/Filed)
38,000ft
Speed:
(Current/Filed)
480kts
Departed: 16-Mar-17 11:46 PM
Arrived: 17-Mar-17 12:52 AM
Distance/Time
Traveled:
386nm/1:05
Distance/Time
To Go:
Arrived

Flight Plot

Page will automatically refresh every two minutes.

Flight plan parsing failed; only flown route is shown


Map Options




Map Legend


Flown Route
Filed Route
Departure Airport
Arrival Airport
Navaid (VOR, NDB)
Fix

Horizontal Profiles

Position Reports

Time Latitude Longitude Heading Altitude Ground
Speed
16-Mar-17 23:43 49.299970 -117.633967 149 1629ft 0kts
16-Mar-17 23:44 49.299313 -117.633695 171 1629ft 14kts
16-Mar-17 23:45 49.295433 -117.630909 168 1629ft 13kts
16-Mar-17 23:46 49.289913 -117.628937 140 1629ft 10kts
16-Mar-17 23:47 49.291127 -117.629615 348 1629ft 54kts
16-Mar-17 23:48 49.329768 -117.651925 305 3038ft 203kts
16-Mar-17 23:49 49.336475 -117.757087 270 5655ft 260kts
16-Mar-17 23:50 49.335979 -117.863564 271 9768ft 250kts
16-Mar-17 23:51 49.355812 -117.969531 291 12846ft 266kts
16-Mar-17 23:52 49.393976 -118.071927 299 15421ft 284kts
16-Mar-17 23:53 49.435933 -118.178515 292 17322ft 308kts
16-Mar-17 23:54 49.475356 -118.310041 278 18007ft 355kts
16-Mar-17 23:55 49.477945 -118.460677 264 19816ft 356kts
16-Mar-17 23:56 49.476268 -118.587966 282 21042ft 372kts
16-Mar-17 23:57 49.524233 -118.724096 295 22704ft 378kts
16-Mar-17 23:58 49.577837 -118.864784 295 24129ft 381kts
16-Mar-17 23:59 49.640582 -119.030351 295 25473ft 389kts
17-Mar-17 00:00 49.686168 -119.151283 295 26340ft 394kts
17-Mar-17 00:01 49.750662 -119.323334 295 27434ft 400kts
17-Mar-17 00:02 49.797092 -119.447905 295 28132ft 404kts
17-Mar-17 00:03 49.862541 -119.624525 295 29095ft 409kts
17-Mar-17 00:04 49.908329 -119.747656 295 29738ft 413kts
17-Mar-17 00:05 49.965311 -119.902929 294 30438ft 417kts
17-Mar-17 00:06 50.034851 -120.084767 297 31189ft 423kts
17-Mar-17 00:07 50.087215 -120.213395 297 31660ft 426kts
17-Mar-17 00:08 50.148826 -120.365205 297 32084ft 430kts
17-Mar-17 00:09 50.212636 -120.523367 297 32452ft 432kts
17-Mar-17 00:10 50.274050 -120.676211 297 32792ft 434kts
17-Mar-17 00:11 50.338162 -120.836031 297 33074ft 435kts
17-Mar-17 00:12 50.401619 -120.996157 297 33292ft 437kts
17-Mar-17 00:13 50.465302 -121.157832 297 33901ft 428kts
17-Mar-17 00:14 50.527213 -121.316070 297 34231ft 430kts
17-Mar-17 00:15 50.589616 -121.476495 297 34406ft 432kts
17-Mar-17 00:16 50.651908 -121.637627 297 34601ft 433kts
17-Mar-17 00:17 50.712817 -121.794880 296 34802ft 434kts
17-Mar-17 00:18 50.774860 -121.957288 296 34954ft 435kts
17-Mar-17 00:19 50.837160 -122.121476 296 35065ft 436kts
17-Mar-17 00:20 50.899069 -122.285674 296 35134ft 437kts
17-Mar-17 00:21 50.961039 -122.451100 296 35195ft 437kts
17-Mar-17 00:22 51.022696 -122.616752 296 35240ft 438kts
17-Mar-17 00:23 51.083332 -122.779431 295 35305ft 438kts
17-Mar-17 00:24 51.143620 -122.943330 296 35892ft 429kts
17-Mar-17 00:25 51.203157 -123.106424 296 36514ft 424kts
17-Mar-17 00:26 51.261945 -123.268411 295 37317ft 414kts
17-Mar-17 00:27 51.319139 -123.427092 295 37726ft 414kts
17-Mar-17 00:28 51.376260 -123.586545 296 38047ft 418kts
17-Mar-17 00:29 51.433312 -123.745603 295 38024ft 428kts
17-Mar-17 00:30 51.490677 -123.907453 295 35347ft 431kts
17-Mar-17 00:31 51.549231 -124.074058 295 32557ft 429kts
17-Mar-17 00:32 51.607203 -124.240100 295 29774ft 428kts
17-Mar-17 00:33 51.664689 -124.405733 295 26995ft 427kts
17-Mar-17 00:34 51.720549 -124.567833 294 25249ft 403kts
17-Mar-17 00:35 51.768937 -124.708208 294 23526ft 392kts
17-Mar-17 00:36 51.820595 -124.859251 293 21496ft 380kts
17-Mar-17 00:37 51.870425 -125.006417 293 19542ft 368kts
17-Mar-17 00:38 51.918633 -125.149667 293 17835ft 358kts
17-Mar-17 00:39 51.965360 -125.289297 293 16265ft 350kts
17-Mar-17 00:40 52.011213 -125.427092 293 15124ft 344kts
17-Mar-17 00:41 52.055971 -125.562329 293 14188ft 339kts
17-Mar-17 00:42 52.099904 -125.695020 291 13209ft 340kts
17-Mar-17 00:43 52.142143 -125.823240 291 12780ft 325kts
17-Mar-17 00:44 52.199082 -125.939463 306 12135ft 331kts
17-Mar-17 00:45 52.280110 -126.017678 327 11550ft 338kts
17-Mar-17 00:46 52.360384 -126.087904 327 11144ft 311kts
17-Mar-17 00:47 52.425117 -126.170070 286 8392ft 286kts
17-Mar-17 00:48 52.441239 -126.290717 268 6292ft 251kts
17-Mar-17 00:49 52.435861 -126.388939 242 3594ft 194kts
17-Mar-17 00:50 52.417407 -126.460666 245 1965ft 154kts
17-Mar-17 00:51 52.404899 -126.519298 244 1022ft 131kts
17-Mar-17 00:52 52.391661 -126.577542 249 288ft 129kts
17-Mar-17 00:53 52.386360 -126.600884 122 122ft 3kts
17-Mar-17 00:54 52.387666 -126.592512 114 122ft 15kts
17-Mar-17 00:55 52.392937 -126.572032 249 403ft 130kts
17-Mar-17 00:56 52.397317 -126.552949 251 782ft 138kts
17-Mar-17 00:57 52.396249 -126.557788 249 702ft 136kts
17-Mar-17 00:58 52.392349 -126.574568 249 350ft 129kts
17-Mar-17 00:59 52.388104 -126.593288 250 123ft 117kts
17-Mar-17 01:00 50.820223 -122.076737 296 35040ft 435kts
17-Mar-17 01:01 52.399303 -126.543270 251 858ft 141kts
17-Mar-17 01:02 52.390763 -126.581444 249 217ft 128kts
17-Mar-17 01:03 52.392141 -126.575466 249 331ft 129kts
17-Mar-17 01:04 52.387910 -126.594178 250 123ft 113kts
17-Mar-17 01:05 52.388467 -126.591638 250 126ft 121kts
17-Mar-17 01:06 52.396038 -126.558703 249 685ft 135kts
17-Mar-17 01:07 52.387565 -126.592128 111 122ft 0kts

Navigation Log

Ident Type
Flight plan parsing failed, navigation log unavailable